sensor_id;sensor_type;location;lat;lon;timestamp;pressure;altitude;pressure_sealevel;temperature;humidity
56681;BME280;42558;52.388;13.390;2023-03-15T00:02:08;100299.71;;;-0.28;100.00
56681;BME280;42558;52.388;13.390;2023-03-15T00:04:37;100305.55;;;-0.30;100.00
56681;BME280;42558;52.388;13.390;2023-03-15T00:07:05;100307.71;;;-0.27;100.00
56681;BME280;42558;52.388;13.390;2023-03-15T00:09:33;100314.77;;;-0.35;100.00
56681;BME280;42558;52.388;13.390;2023-03-15T00:12:02;100316.52;;;-0.34;100.00
56681;BME280;42558;52.388;13.390;2023-03-15T00:14:30;100316.52;;;-0.38;100.00
56681;BME280;42558;52.388;13.390;2023-03-15T00:16:59;100321.14;;;-0.42;100.00
56681;BME280;42558;52.388;13.390;2023-03-15T00:19:27;100329.75;;;-0.46;100.00
56681;BME280;42558;52.388;13.390;2023-03-15T00:21:55;100339.50;;;-0.51;100.00
56681;BME280;42558;52.388;13.390;2023-03-15T00:24:24;100343.80;;;-0.58;100.00
56681;BME280;42558;52.388;13.390;2023-03-15T00:26:52;100350.35;;;-0.58;100.00
56681;BME280;42558;52.388;13.390;2023-03-15T00:29:21;100355.02;;;-0.55;100.00
56681;BME280;42558;52.388;13.390;2023-03-15T00:31:49;100355.88;;;-0.55;100.00
56681;BME280;42558;52.388;13.390;2023-03-15T00:34:18;100366.13;;;-0.54;100.00
56681;BME280;42558;52.388;13.390;2023-03-15T00:36:49;100374.09;;;-0.60;100.00
56681;BME280;42558;52.388;13.390;2023-03-15T00:39:21;100376.58;;;-0.62;100.00
56681;BME280;42558;52.388;13.390;2023-03-15T00:41:53;100381.60;;;-0.72;100.00
56681;BME280;42558;52.388;13.390;2023-03-15T00:44:24;100381.00;;;-0.76;100.00
56681;BME280;42558;52.388;13.390;2023-03-15T00:46:55;100384.81;;;-0.73;100.00
56681;BME280;42558;52.388;13.390;2023-03-15T00:49:25;100384.02;;;-0.68;100.00
56681;BME280;42558;52.388;13.390;2023-03-15T00:51:55;100386.86;;;-0.70;100.00
56681;BME280;42558;52.388;13.390;2023-03-15T00:54:25;100389.24;;;-0.71;100.00
56681;BME280;42558;52.388;13.390;2023-03-15T00:56:55;100390.90;;;-0.65;100.00
56681;BME280;42558;52.388;13.390;2023-03-15T00:59:27;100392.95;;;-0.66;100.00
56681;BME280;42558;52.388;13.390;2023-03-15T01:01:57;100392.71;;;-0.77;100.00
56681;BME280;42558;52.388;13.390;2023-03-15T01:04:27;100391.98;;;-0.81;100.00
56681;BME280;42558;52.388;13.390;2023-03-15T01:06:58;100390.85;;;-0.83;100.00
56681;BME280;42558;52.388;13.390;2023-03-15T01:09:27;100397.20;;;-0.84;100.00
56681;BME280;42558;52.388;13.390;2023-03-15T01:11:59;100398.70;;;-0.91;100.00
56681;BME280;42558;52.388;13.390;2023-03-15T01:14:29;100404.95;;;-0.90;100.00
56681;BME280;42558;52.388;13.390;2023-03-15T01:16:59;100406.02;;;-0.80;100.00
56681;BME280;42558;52.388;13.390;2023-03-15T01:19:29;100406.52;;;-0.87;100.00
56681;BME280;42558;52.388;13.390;2023-03-15T01:21:58;100405.94;;;-0.91;100.00
56681;BME280;42558;52.388;13.390;2023-03-15T01:24:28;100409.74;;;-0.94;100.00
56681;BME280;42558;52.388;13.390;2023-03-15T01:26:57;100416.60;;;-0.89;100.00
56681;BME280;42558;52.388;13.390;2023-03-15T01:29:27;100418.92;;;-0.87;100.00
56681;BME280;42558;52.388;13.390;2023-03-15T01:31:57;100420.60;;;-0.88;100.00
56681;BME280;42558;52.388;13.390;2023-03-15T01:34:27;100427.71;;;-0.84;100.00
56681;BME280;42558;52.388;13.390;2023-03-15T01:36:57;100430.46;;;-0.84;100.00
56681;BME280;42558;52.388;13.390;2023-03-15T01:39:28;100435.58;;;-0.82;100.00
56681;BME280;42558;52.388;13.390;2023-03-15T01:41:57;100432.86;;;-0.81;100.00
56681;BME280;42558;52.388;13.390;2023-03-15T01:44:58;100434.10;;;-0.81;100.00
56681;BME280;42558;52.388;13.390;2023-03-15T01:47:28;100440.96;;;-0.69;100.00
56681;BME280;42558;52.388;13.390;2023-03-15T01:50:09;100442.77;;;-0.64;100.00
56681;BME280;42558;52.388;13.390;2023-03-15T01:52:41;100443.91;;;-0.68;100.00
56681;BME280;42558;52.388;13.390;2023-03-15T01:55:16;100444.98;;;-0.77;100.00
56681;BME280;42558;52.388;13.390;2023-03-15T01:57:54;100441.17;;;-0.84;100.00
56681;BME280;42558;52.388;13.390;2023-03-15T02:00:26;100443.11;;;-0.87;100.00
56681;BME280;42558;52.388;13.390;2023-03-15T02:03:11;100443.65;;;-0.89;100.00
56681;BME280;42558;52.388;13.390;2023-03-15T02:05:49;100442.86;;;-0.88;100.00
56681;BME280;42558;52.388;13.390;2023-03-15T02:08:27;100446.31;;;-0.91;100.00
56681;BME280;42558;52.388;13.390;2023-03-15T02:10:58;100448.91;;;-0.97;100.00
56681;BME280;42558;52.388;13.390;2023-03-15T02:13:31;100452.41;;;-1.03;100.00
56681;BME280;42558;52.388;13.390;2023-03-15T02:16:01;100452.34;;;-1.01;100.00
56681;BME280;42558;52.388;13.390;2023-03-15T02:18:34;100452.91;;;-1.03;100.00
56681;BME280;42558;52.388;13.390;2023-03-15T02:24:18;100454.81;;;-1.03;100.00
56681;BME280;42558;52.388;13.390;2023-03-15T02:26:55;100459.17;;;-1.11;100.00
56681;BME280;42558;52.388;13.390;2023-03-15T02:29:27;100460.83;;;-1.10;100.00
56681;BME280;42558;52.388;13.390;2023-03-15T02:31:59;100472.21;;;-1.13;100.00
56681;BME280;42558;52.388;13.390;2023-03-15T02:34:33;100476.45;;;-1.11;100.00
56681;BME280;42558;52.388;13.390;2023-03-15T02:37:02;100478.74;;;-1.10;100.00
56681;BME280;42558;52.388;13.390;2023-03-15T02:39:32;100479.64;;;-1.16;100.00
56681;BME280;42558;52.388;13.390;2023-03-15T02:42:03;100482.95;;;-1.15;100.00
56681;BME280;42558;52.388;13.390;2023-03-15T02:44:38;100484.77;;;-1.13;100.00
56681;BME280;42558;52.388;13.390;2023-03-15T02:47:19;100489.92;;;-1.14;100.00
56681;BME280;42558;52.388;13.390;2023-03-15T02:49:52;100488.43;;;-1.22;100.00
56681;BME280;42558;52.388;13.390;2023-03-15T02:52:23;100494.35;;;-1.27;100.00
56681;BME280;42558;52.388;13.390;2023-03-15T02:54:53;100495.27;;;-1.29;100.00
56681;BME280;42558;52.388;13.390;2023-03-15T02:57:23;100501.04;;;-1.30;100.00
56681;BME280;42558;52.388;13.390;2023-03-15T02:59:52;100503.87;;;-1.26;100.00
56681;BME280;42558;52.388;13.390;2023-03-15T03:02:23;100508.42;;;-1.22;100.00
56681;BME280;42558;52.388;13.390;2023-03-15T03:04:53;100511.70;;;-1.28;100.00
56681;BME280;42558;52.388;13.390;2023-03-15T03:07:23;100513.33;;;-1.27;100.00
56681;BME280;42558;52.388;13.390;2023-03-15T03:09:53;100518.18;;;-1.29;100.00
56681;BME280;42558;52.388;13.390;2023-03-15T03:12:23;100520.14;;;-1.28;100.00
56681;BME280;42558;52.388;13.390;2023-03-15T03:14:53;100520.77;;;-1.26;100.00
56681;BME280;42558;52.388;13.390;2023-03-15T03:17:25;100520.77;;;-1.23;100.00
56681;BME280;42558;52.388;13.390;2023-03-15T03:19:56;100526.16;;;-1.16;100.00
56681;BME280;42558;52.388;13.390;2023-03-15T03:22:26;100526.06;;;-1.19;100.00
56681;BME280;42558;52.388;13.390;2023-03-15T03:24:55;100529.02;;;-1.21;100.00
56681;BME280;42558;52.388;13.390;2023-03-15T03:27:24;100534.94;;;-1.23;100.00
56681;BME280;42558;52.388;13.390;2023-03-15T03:29:52;100537.52;;;-1.23;100.00
56681;BME280;42558;52.388;13.390;2023-03-15T03:32:22;100534.17;;;-1.24;100.00
56681;BME280;42558;52.388;13.390;2023-03-15T03:34:49;100540.83;;;-1.25;100.00
56681;BME280;42558;52.388;13.390;2023-03-15T03:37:19;100540.99;;;-1.31;100.00
56681;BME280;42558;52.388;13.390;2023-03-15T03:39:49;100539.56;;;-1.36;100.00
56681;BME280;42558;52.388;13.390;2023-03-15T03:42:19;100543.84;;;-1.39;100.00
56681;BME280;42558;52.388;13.390;2023-03-15T03:44:49;100544.17;;;-1.42;100.00
56681;BME280;42558;52.388;13.390;2023-03-15T03:47:19;100548.98;;;-1.49;100.00
56681;BME280;42558;52.388;13.390;2023-03-15T03:49:49;100547.83;;;-1.54;100.00
56681;BME280;42558;52.388;13.390;2023-03-15T03:52:19;100554.20;;;-1.57;100.00
56681;BME280;42558;52.388;13.390;2023-03-15T03:54:49;100559.44;;;-1.58;100.00
56681;BME280;42558;52.388;13.390;2023-03-15T03:57:19;100563.83;;;-1.57;100.00
56681;BME280;42558;52.388;13.390;2023-03-15T03:59:49;100571.82;;;-1.56;100.00
56681;BME280;42558;52.388;13.390;2023-03-15T04:02:19;100574.77;;;-1.64;100.00
56681;BME280;42558;52.388;13.390;2023-03-15T04:04:50;100573.91;;;-1.73;100.00
56681;BME280;42558;52.388;13.390;2023-03-15T04:07:19;100574.48;;;-1.78;100.00
56681;BME280;42558;52.388;13.390;2023-03-15T04:09:49;100574.33;;;-1.72;100.00
56681;BME280;42558;52.388;13.390;2023-03-15T04:12:19;100577.57;;;-1.70;100.00
56681;BME280;42558;52.388;13.390;2023-03-15T04:14:49;100582.82;;;-1.59;100.00
56681;BME280;42558;52.388;13.390;2023-03-15T04:17:19;100586.15;;;-1.61;100.00
56681;BME280;42558;52.388;13.390;2023-03-15T04:19:49;100588.56;;;-1.67;100.00
56681;BME280;42558;52.388;13.390;2023-03-15T04:22:19;100593.70;;;-1.73;100.00
56681;BME280;42558;52.388;13.390;2023-03-15T04:24:49;100593.13;;;-1.83;100.00
56681;BME280;42558;52.388;13.390;2023-03-15T04:27:19;100598.21;;;-1.87;100.00
56681;BME280;42558;52.388;13.390;2023-03-15T04:29:49;100604.26;;;-1.87;100.00
56681;BME280;42558;52.388;13.390;2023-03-15T04:32:19;100606.48;;;-1.87;100.00
56681;BME280;42558;52.388;13.390;2023-03-15T04:34:49;100606.77;;;-1.94;100.00
56681;BME280;42558;52.388;13.390;2023-03-15T04:37:21;100610.10;;;-1.99;100.00
56681;BME280;42558;52.388;13.390;2023-03-15T04:39:51;100614.05;;;-2.02;100.00
56681;BME280;42558;52.388;13.390;2023-03-15T04:42:21;100620.10;;;-2.01;100.00
56681;BME280;42558;52.388;13.390;2023-03-15T04:44:51;100621.09;;;-2.05;100.00
56681;BME280;42558;52.388;13.390;2023-03-15T04:47:22;100615.95;;;-2.10;100.00
56681;BME280;42558;52.388;13.390;2023-03-15T04:49:52;100619.82;;;-2.12;100.00
56681;BME280;42558;52.388;13.390;2023-03-15T04:52:22;100619.06;;;-2.10;100.00
56681;BME280;42558;52.388;13.390;2023-03-15T04:54:51;100627.92;;;-2.14;100.00
56681;BME280;42558;52.388;13.390;2023-03-15T04:57:21;100631.15;;;-2.21;100.00
56681;BME280;42558;52.388;13.390;2023-03-15T04:59:51;100631.25;;;-2.22;100.00
56681;BME280;42558;52.388;13.390;2023-03-15T05:02:21;100634.03;;;-2.15;100.00
56681;BME280;42558;52.388;13.390;2023-03-15T05:04:51;100640.48;;;-2.09;100.00
56681;BME280;42558;52.388;13.390;2023-03-15T05:07:21;100645.16;;;-2.11;100.00
56681;BME280;42558;52.388;13.390;2023-03-15T05:09:51;100648.53;;;-2.18;100.00
56681;BME280;42558;52.388;13.390;2023-03-15T05:12:21;100654.59;;;-2.20;100.00
56681;BME280;42558;52.388;13.390;2023-03-15T05:14:53;100662.02;;;-2.25;100.00
56681;BME280;42558;52.388;13.390;2023-03-15T05:17:23;100668.88;;;-2.26;100.00
56681;BME280;42558;52.388;13.390;2023-03-15T05:19:53;100673.48;;;-2.24;100.00
56681;BME280;42558;52.388;13.390;2023-03-15T05:22:22;100677.20;;;-2.25;100.00
56681;BME280;42558;52.388;13.390;2023-03-15T05:24:54;100682.27;;;-2.21;100.00
56681;BME280;42558;52.388;13.390;2023-03-15T05:27:24;100681.73;;;-2.08;100.00
56681;BME280;42558;52.388;13.390;2023-03-15T05:29:54;100686.39;;;-2.02;100.00
56681;BME280;42558;52.388;13.390;2023-03-15T05:32:24;100686.17;;;-1.94;100.00
56681;BME280;42558;52.388;13.390;2023-03-15T05:34:55;100687.71;;;-1.80;100.00
56681;BME280;42558;52.388;13.390;2023-03-15T05:37:26;100688.77;;;-1.74;100.00
56681;BME280;42558;52.388;13.390;2023-03-15T05:39:56;100693.77;;;-1.69;100.00
56681;BME280;42558;52.388;13.390;2023-03-15T05:42:26;100699.70;;;-1.56;100.00
56681;BME280;42558;52.388;13.390;2023-03-15T05:44:58;100702.11;;;-1.51;100.00
56681;BME280;42558;52.388;13.390;2023-03-15T05:47:27;100703.81;;;-1.48;100.00
56681;BME280;42558;52.388;13.390;2023-03-15T05:49:57;100704.01;;;-1.42;100.00
56681;BME280;42558;52.388;13.390;2023-03-15T05:52:27;100707.16;;;-1.35;100.00
56681;BME280;42558;52.388;13.390;2023-03-15T05:54:57;100713.44;;;-1.26;100.00
56681;BME280;42558;52.388;13.390;2023-03-15T05:57:27;100721.98;;;-1.18;100.00
56681;BME280;42558;52.388;13.390;2023-03-15T05:59:57;100728.27;;;-1.11;100.00
56681;BME280;42558;52.388;13.390;2023-03-15T06:02:27;100730.17;;;-1.00;100.00
56681;BME280;42558;52.388;13.390;2023-03-15T06:04:56;100735.29;;;-0.89;100.00
56681;BME280;42558;52.388;13.390;2023-03-15T06:07:25;100741.43;;;-0.75;100.00
56681;BME280;42558;52.388;13.390;2023-03-15T06:09:53;100744.31;;;-0.61;100.00
56681;BME280;42558;52.388;13.390;2023-03-15T06:12:22;100751.88;;;-0.50;100.00
56681;BME280;42558;52.388;13.390;2023-03-15T06:14:50;100761.25;;;-0.43;100.00
56681;BME280;42558;52.388;13.390;2023-03-15T06:17:18;100765.61;;;-0.42;100.00
56681;BME280;42558;52.388;13.390;2023-03-15T06:19:47;100776.55;;;-0.41;100.00
56681;BME280;42558;52.388;13.390;2023-03-15T06:22:15;100785.22;;;-0.41;100.00
56681;BME280;42558;52.388;13.390;2023-03-15T06:24:47;100784.41;;;-0.49;100.00
56681;BME280;42558;52.388;13.390;2023-03-15T06:27:15;100785.28;;;-0.60;100.00
56681;BME280;42558;52.388;13.390;2023-03-15T06:29:44;100785.64;;;-0.69;100.00
56681;BME280;42558;52.388;13.390;2023-03-15T06:32:12;100784.16;;;-0.71;100.00
56681;BME280;42558;52.388;13.390;2023-03-15T06:34:41;100793.23;;;-0.66;100.00
56681;BME280;42558;52.388;13.390;2023-03-15T06:37:09;100790.53;;;-0.62;100.00
56681;BME280;42558;52.388;13.390;2023-03-15T06:39:37;100800.06;;;-0.53;100.00
56681;BME280;42558;52.388;13.390;2023-03-15T06:42:07;100801.98;;;-0.46;100.00
56681;BME280;42558;52.388;13.390;2023-03-15T06:44:40;100807.38;;;-0.40;100.00
56681;BME280;42558;52.388;13.390;2023-03-15T06:47:10;100810.34;;;-0.37;100.00
56681;BME280;42558;52.388;13.390;2023-03-15T06:49:41;100810.95;;;-0.23;100.00
56681;BME280;42558;52.388;13.390;2023-03-15T06:52:11;100811.95;;;-0.05;100.00
56681;BME280;42558;52.388;13.390;2023-03-15T06:54:41;100814.50;;;-0.03;100.00
56681;BME280;42558;52.388;13.390;2023-03-15T06:57:10;100820.92;;;0.01;100.00
56681;BME280;42558;52.388;13.390;2023-03-15T06:59:40;100820.82;;;0.17;100.00
56681;BME280;42558;52.388;13.390;2023-03-15T07:02:17;100823.67;;;0.25;100.00
56681;BME280;42558;52.388;13.390;2023-03-15T07:04:47;100825.94;;;0.35;100.00
56681;BME280;42558;52.388;13.390;2023-03-15T07:07:17;100828.11;;;0.42;100.00
56681;BME280;42558;52.388;13.390;2023-03-15T07:09:47;100830.92;;;0.46;100.00
56681;BME280;42558;52.388;13.390;2023-03-15T07:12:17;100831.94;;;0.62;100.00
56681;BME280;42558;52.388;13.390;2023-03-15T07:14:47;100835.85;;;1.13;100.00
56681;BME280;42558;52.388;13.390;2023-03-15T07:17:18;100836.92;;;1.36;100.00
56681;BME280;42558;52.388;13.390;2023-03-15T07:19:46;100837.51;;;1.44;100.00
56681;BME280;42558;52.388;13.390;2023-03-15T07:22:25;100836.66;;;1.48;100.00
56681;BME280;42558;52.388;13.390;2023-03-15T07:24:55;100839.00;;;1.53;98.44
56681;BME280;42558;52.388;13.390;2023-03-15T07:27:25;100840.48;;;1.58;96.81
56681;BME280;42558;52.388;13.390;2023-03-15T07:29:55;100842.27;;;1.66;96.68
56681;BME280;42558;52.388;13.390;2023-03-15T07:32:25;100844.02;;;1.67;96.75
56681;BME280;42558;52.388;13.390;2023-03-15T07:34:55;100844.08;;;1.58;98.54
56681;BME280;42558;52.388;13.390;2023-03-15T07:37:28;100849.65;;;1.62;96.97
56681;BME280;42558;52.388;13.390;2023-03-15T07:39:59;100847.52;;;1.67;94.77
56681;BME280;42558;52.388;13.390;2023-03-15T07:42:39;100846.98;;;1.67;94.18
56681;BME280;42558;52.388;13.390;2023-03-15T07:45:10;100853.04;;;1.67;93.79
56681;BME280;42558;52.388;13.390;2023-03-15T07:47:40;100858.84;;;1.72;92.94
56681;BME280;42558;52.388;13.390;2023-03-15T07:50:10;100856.95;;;1.69;92.91
56681;BME280;42558;52.388;13.390;2023-03-15T07:52:43;100858.71;;;1.73;93.59
56681;BME280;42558;52.388;13.390;2023-03-15T07:55:13;100861.90;;;1.78;94.77
56681;BME280;42558;52.388;13.390;2023-03-15T07:57:43;100867.11;;;1.74;93.62
56681;BME280;42558;52.388;13.390;2023-03-15T08:00:13;100868.14;;;1.88;94.33
56681;BME280;42558;52.388;13.390;2023-03-15T08:02:43;100873.39;;;2.03;94.23
56681;BME280;42558;52.388;13.390;2023-03-15T08:05:14;100871.83;;;2.00;93.31
56681;BME280;42558;52.388;13.390;2023-03-15T08:07:45;100870.54;;;2.01;92.98
56681;BME280;42558;52.388;13.390;2023-03-15T08:10:17;100876.72;;;2.07;93.48
56681;BME280;42558;52.388;13.390;2023-03-15T08:12:47;100878.83;;;2.04;92.37
56681;BME280;42558;52.388;13.390;2023-03-15T08:15:18;100880.87;;;2.10;93.78
56681;BME280;42558;52.388;13.390;2023-03-15T08:17:48;100884.86;;;2.04;93.41
56681;BME280;42558;52.388;13.390;2023-03-15T08:20:19;100886.28;;;2.11;92.57
56681;BME280;42558;52.388;13.390;2023-03-15T08:22:49;100889.97;;;2.23;93.00
56681;BME280;42558;52.388;13.390;2023-03-15T08:25:22;100892.30;;;2.28;92.75
56681;BME280;42558;52.388;13.390;2023-03-15T08:27:52;100895.56;;;2.20;92.76
56681;BME280;42558;52.388;13.390;2023-03-15T08:30:23;100898.07;;;2.25;94.00
56681;BME280;42558;52.388;13.390;2023-03-15T08:32:53;100896.02;;;2.26;93.23
56681;BME280;42558;52.388;13.390;2023-03-15T08:35:22;100899.87;;;2.19;93.13
56681;BME280;42558;52.388;13.390;2023-03-15T08:37:52;100903.41;;;2.24;93.67
56681;BME280;42558;52.388;13.390;2023-03-15T08:40:22;100906.74;;;2.18;92.64
56681;BME280;42558;52.388;13.390;2023-03-15T08:42:52;100910.48;;;2.27;93.00
56681;BME280;42558;52.388;13.390;2023-03-15T08:45:24;100912.22;;;2.24;91.34
56681;BME280;42558;52.388;13.390;2023-03-15T08:47:56;100919.70;;;2.34;91.71
56681;BME280;42558;52.388;13.390;2023-03-15T08:50:27;100924.45;;;2.50;93.51
56681;BME280;42558;52.388;13.390;2023-03-15T08:53:00;100925.08;;;2.67;94.05
56681;BME280;42558;52.388;13.390;2023-03-15T08:55:30;100926.13;;;2.67;91.53
56681;BME280;42558;52.388;13.390;2023-03-15T08:57:58;100928.92;;;2.64;91.03
56681;BME280;42558;52.388;13.390;2023-03-15T09:00:30;100933.15;;;2.76;91.77
56681;BME280;42558;52.388;13.390;2023-03-15T09:02:58;100934.20;;;3.02;90.92
56681;BME280;42558;52.388;13.390;2023-03-15T09:05:26;100932.80;;;3.24;88.39
56681;BME280;42558;52.388;13.390;2023-03-15T09:07:55;100942.09;;;3.22;89.03
56681;BME280;42558;52.388;13.390;2023-03-15T09:10:23;100945.45;;;3.23;89.56
56681;BME280;42558;52.388;13.390;2023-03-15T09:12:51;100951.88;;;3.12;87.95
56681;BME280;42558;52.388;13.390;2023-03-15T09:15:20;100955.59;;;2.91;88.36
56681;BME280;42558;52.388;13.390;2023-03-15T09:17:49;100964.66;;;2.85;89.89
56681;BME280;42558;52.388;13.390;2023-03-15T09:20:21;100970.39;;;2.57;88.76
56681;BME280;42558;52.388;13.390;2023-03-15T09:22:55;100971.52;;;2.58;90.09
56681;BME280;42558;52.388;13.390;2023-03-15T09:25:25;100972.44;;;2.56;90.29
56681;BME280;42558;52.388;13.390;2023-03-15T09:27:55;100978.88;;;2.67;89.98
56681;BME280;42558;52.388;13.390;2023-03-15T09:30:25;100979.43;;;3.04;88.65
56681;BME280;42558;52.388;13.390;2023-03-15T09:32:55;100979.70;;;3.13;86.81
56681;BME280;42558;52.388;13.390;2023-03-15T09:35:25;100984.22;;;3.20;85.45
56681;BME280;42558;52.388;13.390;2023-03-15T09:37:55;100987.46;;;3.34;86.88
56681;BME280;42558;52.388;13.390;2023-03-15T09:40:33;100987.56;;;4.02;85.46
56681;BME280;42558;52.388;13.390;2023-03-15T09:45:51;100987.02;;;4.39;78.82
56681;BME280;42558;52.388;13.390;2023-03-15T09:48:46;100994.04;;;4.19;78.21
56681;BME280;42558;52.388;13.390;2023-03-15T09:54:27;100997.08;;;3.97;76.81
56681;BME280;42558;52.388;13.390;2023-03-15T09:57:04;101003.23;;;3.71;77.79
56681;BME280;42558;52.388;13.390;2023-03-15T09:59:42;101007.36;;;3.74;79.63
56681;BME280;42558;52.388;13.390;2023-03-15T10:02:23;101014.98;;;3.81;80.25
56681;BME280;42558;52.388;13.390;2023-03-15T10:05:04;101022.63;;;3.39;80.22
56681;BME280;42558;52.388;13.390;2023-03-15T10:07:36;101030.63;;;3.24;80.19
56681;BME280;42558;52.388;13.390;2023-03-15T10:10:18;101030.93;;;3.13;80.72
56681;BME280;42558;52.388;13.390;2023-03-15T10:13:06;101029.48;;;3.08;80.52
56681;BME280;42558;52.388;13.390;2023-03-15T10:17:02;101030.58;;;3.13;80.45
56681;BME280;42558;52.388;13.390;2023-03-15T10:19:16;101034.46;;;3.28;80.18
56681;BME280;42558;52.388;13.390;2023-03-15T10:21:55;101036.40;;;3.22;79.52
56681;BME280;42558;52.388;13.390;2023-03-15T10:24:58;101037.02;;;3.17;79.29
56681;BME280;42558;52.388;13.390;2023-03-15T10:27:41;101036.08;;;3.60;79.49
56681;BME280;42558;52.388;13.390;2023-03-15T10:30:20;101032.19;;;3.93;77.91
56681;BME280;42558;52.388;13.390;2023-03-15T10:35:41;101032.80;;;4.42;74.69
56681;BME280;42558;52.388;13.390;2023-03-15T10:38:17;101030.55;;;4.55;74.94
56681;BME280;42558;52.388;13.390;2023-03-15T10:40:52;101030.77;;;5.16;73.20
56681;BME280;42558;52.388;13.390;2023-03-15T10:43:27;101031.09;;;4.32;73.34
56681;BME280;42558;52.388;13.390;2023-03-15T10:46:09;101039.23;;;4.10;75.22
56681;BME280;42558;52.388;13.390;2023-03-15T10:51:45;101046.14;;;3.85;74.97
56681;BME280;42558;52.388;13.390;2023-03-15T10:54:21;101043.29;;;4.24;75.17
56681;BME280;42558;52.388;13.390;2023-03-15T10:57:05;101042.27;;;4.52;74.24
56681;BME280;42558;52.388;13.390;2023-03-15T11:00:06;101042.98;;;4.33;71.55
56681;BME280;42558;52.388;13.390;2023-03-15T11:02:49;101040.77;;;4.29;71.25
56681;BME280;42558;52.388;13.390;2023-03-15T11:05:20;101042.98;;;4.41;72.47
56681;BME280;42558;52.388;13.390;2023-03-15T11:07:57;101045.94;;;4.28;72.53
56681;BME280;42558;52.388;13.390;2023-03-15T11:10:33;101048.15;;;4.11;73.13
56681;BME280;42558;52.388;13.390;2023-03-15T11:16:03;101051.70;;;3.89;75.12
56681;BME280;42558;52.388;13.390;2023-03-15T11:18:58;101047.92;;;3.94;75.48
56681;BME280;42558;52.388;13.390;2023-03-15T11:21:33;101048.99;;;4.11;76.20
56681;BME280;42558;52.388;13.390;2023-03-15T11:24:06;101045.73;;;4.24;75.41
56681;BME280;42558;52.388;13.390;2023-03-15T11:26:38;101044.50;;;4.11;75.19
56681;BME280;42558;52.388;13.390;2023-03-15T11:29:26;101045.27;;;4.74;74.65
56681;BME280;42558;52.388;13.390;2023-03-15T11:32:00;101046.48;;;4.82;71.58
56681;BME280;42558;52.388;13.390;2023-03-15T11:34:58;101049.77;;;4.65;72.42
56681;BME280;42558;52.388;13.390;2023-03-15T11:37:48;101051.33;;;4.52;72.69
56681;BME280;42558;52.388;13.390;2023-03-15T11:40:33;101052.84;;;4.55;74.14
56681;BME280;42558;52.388;13.390;2023-03-15T11:43:30;101052.14;;;5.05;72.18
56681;BME280;42558;52.388;13.390;2023-03-15T11:46:05;101047.58;;;5.67;70.62
56681;BME280;42558;52.388;13.390;2023-03-15T11:48:45;101044.11;;;5.67;67.88
56681;BME280;42558;52.388;13.390;2023-03-15T11:51:17;101046.66;;;5.57;66.72
56681;BME280;42558;52.388;13.390;2023-03-15T11:54:10;101046.21;;;5.64;66.79
56681;BME280;42558;52.388;13.390;2023-03-15T11:56:55;101046.24;;;5.78;65.35
56681;BME280;42558;52.388;13.390;2023-03-15T11:59:29;101050.41;;;5.50;65.74
56681;BME280;42558;52.388;13.390;2023-03-15T12:04:45;101051.06;;;5.13;67.56
56681;BME280;42558;52.388;13.390;2023-03-15T12:07:58;101047.86;;;5.08;67.59
56681;BME280;42558;52.388;13.390;2023-03-15T12:10:30;101043.05;;;5.76;66.31
56681;BME280;42558;52.388;13.390;2023-03-15T12:13:29;101034.09;;;6.32;64.27
56681;BME280;42558;52.388;13.390;2023-03-15T12:15:59;101038.27;;;6.07;63.49
56681;BME280;42558;52.388;13.390;2023-03-15T12:18:44;101036.14;;;6.01;63.70
56681;BME280;42558;52.388;13.390;2023-03-15T12:21:23;101038.99;;;5.66;65.45
56681;BME280;42558;52.388;13.390;2023-03-15T12:24:26;101044.45;;;5.58;65.74
56681;BME280;42558;52.388;13.390;2023-03-15T12:27:15;101045.77;;;5.30;64.75
56681;BME280;42558;52.388;13.390;2023-03-15T12:29:58;101040.44;;;5.49;64.88
56681;BME280;42558;52.388;13.390;2023-03-15T12:32:29;101040.34;;;6.02;63.68
56681;BME280;42558;52.388;13.390;2023-03-15T12:35:18;101034.94;;;5.92;65.31
56681;BME280;42558;52.388;13.390;2023-03-15T12:37:52;101039.95;;;6.60;63.19
56681;BME280;42558;52.388;13.390;2023-03-15T12:40:41;101042.69;;;6.38;62.79
56681;BME280;42558;52.388;13.390;2023-03-15T12:43:36;101039.50;;;6.52;61.17
56681;BME280;42558;52.388;13.390;2023-03-15T12:46:06;101039.75;;;6.85;61.63
56681;BME280;42558;52.388;13.390;2023-03-15T12:57:20;101048.73;;;6.71;58.26
56681;BME280;42558;52.388;13.390;2023-03-15T13:02:42;101052.92;;;6.66;57.58
56681;BME280;42558;52.388;13.390;2023-03-15T13:05:26;101048.11;;;6.73;56.87
56681;BME280;42558;52.388;13.390;2023-03-15T13:16:47;101055.23;;;6.83;56.16
56681;BME280;42558;52.388;13.390;2023-03-15T13:19:26;101051.89;;;6.66;53.24
56681;BME280;42558;52.388;13.390;2023-03-15T13:22:30;101053.05;;;6.45;51.12
56681;BME280;42558;52.388;13.390;2023-03-15T13:25:33;101055.36;;;6.76;52.13
56681;BME280;42558;52.388;13.390;2023-03-15T13:28:24;101053.19;;;6.95;49.50
56681;BME280;42558;52.388;13.390;2023-03-15T13:30:56;101054.73;;;7.00;49.09
56681;BME280;42558;52.388;13.390;2023-03-15T13:33:29;101057.85;;;6.93;50.19
56681;BME280;42558;52.388;13.390;2023-03-15T13:36:16;101058.01;;;6.93;51.88
56681;BME280;42558;52.388;13.390;2023-03-15T13:38:52;101052.96;;;6.62;50.90
56681;BME280;42558;52.388;13.390;2023-03-15T13:41:30;101057.55;;;6.28;51.97
56681;BME280;42558;52.388;13.390;2023-03-15T13:44:15;101056.06;;;6.26;50.92
56681;BME280;42558;52.388;13.390;2023-03-15T13:46:47;101058.14;;;6.50;48.61
56681;BME280;42558;52.388;13.390;2023-03-15T13:49:18;101055.63;;;7.05;46.18
56681;BME280;42558;52.388;13.390;2023-03-15T13:51:52;101056.63;;;6.62;47.67